Vremea mâine în Zărnești - Romania

Vrei sa afli care e starea vremii acum in Brasov - Romania? Dorim sa iti furnizam starea vremii pentru Brasov - Romania. Starea vremii Brasov - Romania pentru astazi.

Vremea mâine în Zărnești

Temperatura minimă:
5.8 °C

Temperatura maximă:
19.9 °C

Mâine va fi: Ploi moderate
Precipitații: 85 %
Umiditate: 75%
Viteza maximă vânt mâine:
10.8 km/h

Evoluția vremii in Zărnești pe ore mâine

Ora: 13:00
Temperatura: °C
Sansa de precipitatii: %
Ora Descriere Temp Se simte Precipitatii Umiditate Vant
00:00Patchy rain nearby6.9°4.8°71%92%SSW 10.8 KM/H
01:00Patchy rain nearby6.8°4.8°82%93%SSW 10.1 KM/H
02:006.7°4.8°0%93%SSW 9.7 KM/H
03:00Senin6.4°4.6°0%92%SSW 9 KM/H
04:00Senin6.2°4.6°0%90%SSW 7.9 KM/H
05:00Senin5.9°4.2°0%90%SSW 7.9 KM/H
06:00Senin5.8°4.1°0%89%SSW 7.6 KM/H
07:00Senin6.9°5.5°0%85%SSW 7.6 KM/H
08:00Senin13.2°13°0%77%SSW 6.8 KM/H
09:00Senin15.4°15.4°0%67%SSW 6.1 KM/H
10:00Senin16.9°16.9°0%58%SSW 6.5 KM/H
11:00Senin18.6°18.6°0%49%SSW 6.8 KM/H
12:00Patchy rain nearby19.7°19.7°84%45%SSW 7.6 KM/H
13:00Patchy rain nearby19.9°19.9°100%46%SSW 9 KM/H
14:00Patchy rain nearby19.8°19.8°100%50%SSW 10.4 KM/H
15:00Patchy rain nearby19°19°100%53%SSW 10.4 KM/H
16:00Patchy rain nearby18.6°18.6°100%57%SSW 10.4 KM/H
17:00Patchy rain nearby18.1°18.1°100%60%SSW 10.4 KM/H
18:00Patchy rain nearby17.2°17.2°100%66%SSW 10.8 KM/H
19:00Patchy rain nearby16°16°100%74%SSW 10.4 KM/H
20:00Patchy rain nearby11.4°10.5°100%88%SSW 8.6 KM/H
21:00Ploaie ușoară9.3°7.8°100%93%SSW 9.7 KM/H
22:00Ploi moderate9.7°8.9°100%97%SW 6.8 KM/H
23:00Burniță ușoară10.4°10.1°100%96%S 5.4 KM/H




tutorials